Página principal
METAR-TAF:

METAR-TAF

Aeroportos :

Aeroporto Internacional de Mashhad

Meshed, Irão

latitude: 36-16N, longitude: 059-38E, altura: 989 m

Observação actual do tempo

O boletim foi feito há 42 minutos, às 18:00 UTC
Vento calmo
Temperatura 7°C
Humidade 57%
Pressão 1023 hPa
Visibilidade 10 km ou mais
Nuvens fragmentadasa uma altura de 3000 ft

METAR: OIMM 231800Z 00000KT 9999 BKN030 07/M01 Q1022 A3021

Hora: 22:12 (18:42 UTC)

Previsão

O boletim foi feito há 52 minutos, às 17:50 UTC
Previsão válida de 23 às 18 UTC a 24 às 24 UTC
Vento 8 kt de su-sudeste
Visibilidade: 7000 m
Nuvens dispersasa uma altura de 3000 ft
Tornando-se
de 24 às 06 UTC a 24 às 08 UTC
Poucas nuvensa uma altura de 3000 ft, Cumulonimbus.
Nuvens dispersasa uma altura de 4000 ft
Nuvens fragmentadasa uma altura de 10000 ft

TAF: OIMM 231750Z 2318/2424 15008KT 7000 SCT030 BECMG 2406/2408 FEW030CB SCT040 BKN100

Observações e previsões do tempo de mais de 4000 aeroportos (mensagens METAR e TAF).

As estações disponíveis são os pontos amarelos e vermelhos sobre o mapa.

Mova o rato sobre o mapa para ver o nome da estação.

Depois clique no ponto para visualizar as observações e previsões meteorológicas.

Para alterar o mapa : clique nos botões verdes com uma cruz preta para aumentar o zoom; no botão verde com uma pitada de zoom; ou nas setas verdes para mapas adjacentes.


METAR-TAF: